Timeline UpdatesTrip UpdatesNews PostsPvt PostsTravel TipsAdmin PostsConv PostsFollowed PostsChat RequestsBlog PostsPNR Posts

Disclaimer
Search
 
 
Fri Aug 1, 2014 17:20:52 ISTHomeTrainsΣChainsAtlasPNRForumGalleryNewsFAQTripsMembersLoginFeedback
No Recent News for this Train
Other Trains in the News **new
Latest...
Monsoon TT Updated; W.e.f. 1st July to 30th September 2014
Mon Jun 30, 2014 (05:01PM)
⇐ Return Journey: Train# 16337

16338/Ernakulam-Okha Express

Jun 30 2014 (5:01PM)
Change Departure Station:
Change Arrival Station:
Post a Train Travel TipPost a Train Travel Tip **new
Post a Comment/Question/Picture/VideoPost a Comment/Question/Picture/Video
Pantry/Catering
✓ Pantry Car Avbl
✓ Catering Avbl
RSA - Rake Sharing
12683/84 Ernakulam Bangalore Express
Rake/Coach Composition
LOCO-SLR-GEN-GEN-S1-S2-S3-S4-S5-S6-S7-S8-S9-S10-PC-S11-S12-B1-B2-A1-GEN-SLR.; Author: Mahesh Kavthankar.; ; Entry# Re# 276092-1.
Loco
ERS WDM3A
News    PNR    Forum    Time-Table    Availability    Fare Chart    Map    Arr/Dep History    Trips    Gallery    ΣChains    X/O    Timeline    
Travel Time: 37h 45m    32 halts    Distance: 2190 km    Avg Speed: 58 km/hr
Type: Mail/Express
Zone: SR/Southern
Departs @ 03:40 (Avg 18m late)
Platform# ???
    T S
Kasaragod/KGQ 
Arrives @ 17:25 +1 night (Avg 15m late)
Platform# 1
S    F 
Okha/OKHA 

32 halts. 238 intermediate Stations between Kasaragod and Okha

Show ALL intermediate Stations  Show Old Time-Table

#CodeStation NameX/OArrivesAvgDepartsAvgHaltPFDay#KmSpeedElevZoneAddress
1ERSErnakulam Junction (South) (6)  -20:05+611-368.4653mSRErnakulam 682016, Kerala
2AWYAluva (3)  20:23+1720:25+182m--1-349.06112mSRPh: 0484-2624141, Kerala
3TCRThrissur (4)  21:19+2221:22+223m21-294.4346mSRThrissur Tel: 0487 2423150, Kerala
4SRRShoranur Junction (7)X  22:20+1822:30+2410m61-261.45326mSRShoranur ph.no 0466-2222913, Kerala
5PTBPattambi (2)  22:43+2622:45+252m--1-249.96221mSRPattambi, Kerala
6KTUKuttippuram (2)X  23:03+2723:05+272m--1-231.45017mSRKuttippuram, Kerala
7TIRTirur (3)  23:23+2623:25+272m--1-216.3749mSRTel: 0494 2422240, Kerala
8PGIParappangadi (2)X  23:38+2923:40+302m--1-200.26519mSRParappanangadi, Kerala
9FKFerok (2)  23:54+3323:55+341m--1-185.12419mSRFeroke, Kerala
10CLTKozhikode Main (4)X  00:20+2400:25+255m42-175.16311mSRCalicut Tel: 0495 2701234, Kerala
11QLDKoyilandy (3)  00:48+2800:50+282m--2-150.87711mSRQuilandi, Kerala
12BDJVadakara (2)  01:07+2801:09+282m22-128.86611mSRCalicut / Station Ph No : 0496-2524254, Kerala
13TLYThalassery (2)  01:29+3001:30+321m62-106.7419mSRKannur, Kerala
14CANKannur Main (3)  02:00+2702:05+275m12-86.06714mSRKannur Tel: 0497 2705555, Kerala
15KPQKannapuram (2)  02:18+2802:20+272m12-71.6649mSRKannur District, Kerala
16PAYPayyanur (3)  02:38+2402:40+242m--2-52.4530mSRKannur District, Kerala
17KZEKanhangad (3)  03:13+2903:15+292m--2-23.16015mSRKanhangad, Kerala
18KGQ»Kasaragod (3)»  03:38+1803:40+182m--20.04218mSRTel: 04994 220800, Kerala
19MAJNMangalore Junction (3)X  04:50+405:00+1610m1249.13124mSRMangalore 575001, Karnataka
20SLSurathkal (1)  05:40+905:42+122m1269.67022mKRSurathkal, Karnataka
21UDUdupi (2)  06:18+1606:20+172m--2111.58018mKRUdupi, Karnataka
22KUDAKundapura (2)X  06:44+2906:46+302m12143.55313mKRBasrur, Karnataka
23BYNRByndoor Mookambika Road (1)  07:24+007:26+02m12177.05110mKRUdupi Dist. 576214, Karnataka
24BTJLBhatkal (2)  07:44+3007:46+392m--2192.25316mKRBhatkal - 581320, Karnataka
25HNAHonnavar (2)  08:32+3708:34+392m--2233.2474mKRUttara Kannada Dist, Karnataka
26KAWRKarwar (2)  10:02+3410:04+402m--2302.04314mKRKarwar, Karnataka
27MAOMadgaon Junction (3)  11:30+2211:40+2510m22363.45211mKRMadgaon 403601, Goa
28THVMThivim (2)  12:32+3312:34+362m12408.35521mKRThivim - 403502, Goa
29KKWKankavali (2)  14:00+5414:02+422m12486.86845mKRKankavli - 416602, Maharashtra
30RNRatnagiri (3)X  15:40+3015:45+355m22598.250129mKRRatnagiri 415612, Maharashtra
31MNIMangaon (2)  19:12+3519:14+362m12771.15112mKRMangaon - 402104, Maharashtra
32PNVLPanvel Junction (7)X  21:20+2921:25+345m62877.3-10mCRPanvel, Maharashtra
33BIRDBhiwandi Road (4)X  22:23+4022:25+452m421218.63626mCRBhiwandi, Maharashtra
34BSRVasai Road (7)  23:10+2223:15+275m621245.9607mWRVasai 401202, Maharashtra
35BORBoisar (3)00:06+3300:08+332m--31296.87217mWRBoisar Tel.no-02525-266626, Maharashtra
36BLValsad (3)X  01:28+3701:30+432m131393.24815mWRValsad, Gujarat
37NVSNavsari (3)X  02:19+2302:20+241m131432.33614mWRNavsari, Gujarat
38STSurat (4)  03:10+1103:22+1312m131461.97519mWRSurat 395001, Gujarat
39AKVAnkleshwar Junction (4)XO  04:02+2604:04+262m131511.97019mWRAnkleshwar, Gujarat
40BRCVadodara Junction (7)X  05:12+3405:22+3610m231591.76736mWRVadodara 390005, Gujarat
41ANNDAnand Junction (6)X  05:54+4:3005:56+4:302m231627.56144mWRAnand, Gujarat
42MANManinagar (2)  06:56-06:58-2m131688.41150mWRAhmadabad, Gujarat
43ADIAhmedabad Junction (12)  07:15+4607:35+3920m131691.56351mWRAhmedabad, Gujarat
44VGViramgam Junction (5)  08:37+3608:39+352m131757.04729mWRViramgam, Gujarat
45SUNRSurendranagar Junction (4)  10:03+3610:05+362m--31822.55472mWRSurendra Nagar, Gujarat
46RJTRajkot Junction (5)X  12:13+3512:28+3915m231938.558128mWRRajkot, Gujarat
47HAPAHapa (3)  13:46+4713:48+592m--32014.43716mWRJamnagar, Gujarat
48JAMJamnagar (2)X  14:02+5614:05+1:003m--32023.14814mWRJamnagar, Gujarat
49KMBLKhambhalia  15:13+1:0015:15+1:002m--32077.46949mWRKhambhalia, Gujarat
50DWKDwarka (2)  16:28+4916:30+522m--32161.53114mWRDwarka, Gujarat
51OKHA•Okha (3)•  17:25+15-132190.1-5mWROkha, Gujarat
Scroll to Top
Scroll to Bottom